地図

経路データ

SID SEASON NUMBER BASIN SUBBASIN NAME ISO_TIME NATURE LAT LON WMO_WIND WMO_PRES WMO_AGENCY TRACK_TYPE DIST2LAND LANDFALL IFLAG USA_AGENCY USA_ATCF_ID USA_LAT USA_LON USA_RECORD USA_STATUS USA_WIND USA_PRES USA_SSHS USA_R34_NE USA_R34_SE USA_R34_SW USA_R34_NW USA_R50_NE USA_R50_SE USA_R50_SW USA_R50_NW USA_R64_NE USA_R64_SE USA_R64_SW USA_R64_NW USA_POCI USA_ROCI USA_RMW USA_EYE TOKYO_LAT TOKYO_LON TOKYO_GRADE TOKYO_WIND TOKYO_PRES TOKYO_R50_DIR TOKYO_R50_LONG TOKYO_R50_SHORT TOKYO_R30_DIR TOKYO_R30_LONG TOKYO_R30_SHORT TOKYO_LAND CMA_LAT CMA_LON CMA_CAT CMA_WIND CMA_PRES HKO_LAT HKO_LON HKO_CAT HKO_WIND HKO_PRES NEWDELHI_LAT NEWDELHI_LON NEWDELHI_GRADE NEWDELHI_WIND NEWDELHI_PRES NEWDELHI_CI NEWDELHI_DP NEWDELHI_POCI REUNION_LAT REUNION_LON REUNION_TYPE REUNION_WIND REUNION_PRES REUNION_TNUM REUNION_CI REUNION_RMW REUNION_R34_NE REUNION_R34_SE REUNION_R34_SW REUNION_R34_NW REUNION_R50_NE REUNION_R50_SE REUNION_R50_SW REUNION_R50_NW REUNION_R64_NE REUNION_R64_SE REUNION_R64_SW REUNION_R64_NW BOM_LAT BOM_LON BOM_TYPE BOM_WIND BOM_PRES BOM_TNUM BOM_CI BOM_RMW BOM_R34_NE BOM_R34_SE BOM_R34_SW BOM_R34_NW BOM_R50_NE BOM_R50_SE BOM_R50_SW BOM_R50_NW BOM_R64_NE BOM_R64_SE BOM_R64_SW BOM_R64_NW BOM_ROCI BOM_POCI BOM_EYE BOM_POS_METHOD BOM_PRES_METHOD NADI_LAT NADI_LON NADI_CAT NADI_WIND NADI_PRES WELLINGTON_LAT WELLINGTON_LON WELLINGTON_WIND WELLINGTON_PRES DS824_LAT DS824_LON DS824_STAGE DS824_WIND DS824_PRES TD9636_LAT TD9636_LON TD9636_STAGE TD9636_WIND TD9636_PRES TD9635_LAT TD9635_LON TD9635_WIND TD9635_PRES TD9635_ROCI NEUMANN_LAT NEUMANN_LON NEUMANN_CLASS NEUMANN_WIND NEUMANN_PRES MLC_LAT MLC_LON MLC_CLASS MLC_WIND MLC_PRES USA_GUST BOM_GUST BOM_GUST_PER REUNION_GUST REUNION_GUST_PER USA_SEAHGT USA_SEARAD_NE USA_SEARAD_SE USA_SEARAD_SW USA_SEARAD_NW STORM_SPEED STORM_DIR
2021272N22072 2021 82 NI AS GULAB 2021-09-29 06:00:00 NR 22.1000 72.4000 PROVISIONAL 10 0 O_____________ tcvitals BB032021 22.1000 72.4000 25 1001 -1 1004 126 80 11 279
2021272N22072 2021 82 NI AS GULAB 2021-09-29 09:00:00 NR 22.1901 71.8099 PROVISIONAL 0 0 P_____________ BB032021 22.1849 71.8226 -1 11 279
2021272N22072 2021 82 NI AS GULAB 2021-09-29 12:00:00 NR 22.2687 71.2186 PROVISIONAL 0 0 P_____________ BB032021 22.2656 71.2437 -1 11 278
2021272N22072 2021 82 NI AS GULAB 2021-09-29 15:00:00 NR 22.3372 70.6290 PROVISIONAL 0 0 P_____________ BB032021 22.3397 70.6626 -1 11 277
2021272N22072 2021 82 NI AS GULAB 2021-09-29 18:00:00 NR 22.3974 70.0441 PROVISIONAL 0 0 P_____________ BB032021 22.4050 70.0788 -1 11 276
2021272N22072 2021 82 NI AS GULAB 2021-09-29 21:00:00 NR 22.4511 69.4668 PROVISIONAL 22 11 P_____________ BB032021 22.4592 69.4914 -1 11 276
2021272N22072 2021 82 NI AS GULAB 2021-09-30 00:00:00 NR 22.5000 68.9000 PROVISIONAL 15 15 O_____________ tcvitals BB032021 22.5000 68.9000 25 1001 -1 1003 95 80 11 274
2021272N22072 2021 82 NI AS GULAB 2021-09-30 03:00:00 NR 22.5265 68.3053 PROVISIONAL 65 65 P_____________ BB032021 22.5265 68.3053 -1 11 272
2021272N22072 2021 82 NI AS GULAB 2021-09-30 06:00:00 NR 22.5434 67.7140 PROVISIONAL 120 120 P_____________ BB032021 22.5434 67.7140 -1 11 272
2021272N22072 2021 82 NI AS GULAB 2021-09-30 09:00:00 NR 22.5570 67.1346 PROVISIONAL 143 143 P_____________ BB032021 22.5570 67.1346 -1 11 272
2021272N22072 2021 82 NI AS GULAB 2021-09-30 12:00:00 NR 22.5735 66.5752 PROVISIONAL 168 168 P_____________ BB032021 22.5735 66.5752 -1 10 272
2021272N22072 2021 82 NI AS GULAB 2021-09-30 15:00:00 NR 22.5995 66.0441 PROVISIONAL 211 211 P_____________ BB032021 22.5995 66.0441 -1 10 274
2021272N22072 2021 82 NI AS GULAB 2021-09-30 18:00:00 NR 22.6415 65.5491 PROVISIONAL 249 242 P_____________ BB032021 22.6415 65.5491 -1 9 277
2021272N22072 2021 82 NI AS GULAB 2021-09-30 21:00:00 NR 22.7061 65.0984 PROVISIONAL 276 268 P_____________ BB032021 22.7061 65.0984 -1 8 281
2021272N22072 2021 82 NI AS GULAB 2021-10-01 00:00:00 NR 22.8000 64.7000 PROVISIONAL 268 257 O_____________ tcvitals BB032021 22.8000 64.7000 45 992 0 100 40 40 80 1001 150 70 7 288
2021272N22072 2021 82 NI AS GULAB 2021-10-01 03:00:00 NR 22.9278 64.3588 PROVISIONAL 257 236 P_____________ BB032021 22.9278 64.3588 -1 6 296
2021272N22072 2021 82 NI AS GULAB 2021-10-01 06:00:00 NR 23.0858 64.0676 PROVISIONAL 236 214 P_____________ BB032021 23.0858 64.0676 -1 6 304
2021272N22072 2021 82 NI AS GULAB 2021-10-01 09:00:00 NR 23.2681 63.8162 PROVISIONAL 214 190 P_____________ BB032021 23.2681 63.8162 -1 6 311
2021272N22072 2021 82 NI AS GULAB 2021-10-01 12:00:00 NR 23.4686 63.5946 PROVISIONAL 190 167 P_____________ BB032021 23.4686 63.5946 -1 6 317
2021272N22072 2021 82 NI AS GULAB 2021-10-01 15:00:00 NR 23.6813 63.3925 PROVISIONAL 167 146 P_____________ BB032021 23.6813 63.3925 -1 6 320
2021272N22072 2021 82 NI AS GULAB 2021-10-01 18:00:00 NR 23.9000 63.2000 PROVISIONAL 146 O_____________ tcvitals BB032021 23.9000 63.2000 54 983 0 100 60 75 75 1001 170 20 6 321

IBTrACS Databaseについて

本データベースは、米国NOAAが公開する1842年以降の世界の熱帯低気圧のベストトラックデータアーカイブInternational Best Track Archive for Climate Stewardship (IBTrACS)を、ウェブで閲覧しやすい形式に変換したものです。

最終更新日:2022-01-14